createdAt,value
2022-11-18T00:00:11.485Z,1.95
2022-11-18T00:05:13.687Z,2.58
2022-11-18T00:10:16.251Z,2.50
2022-11-18T00:15:18.336Z,2.83
2022-11-18T00:20:20.459Z,2.70
2022-11-18T00:25:22.615Z,3.40
2022-11-18T00:30:25.047Z,2.20
2022-11-18T00:35:27.122Z,2.85
2022-11-18T00:40:29.260Z,2.67
2022-11-18T00:45:31.341Z,3.05
2022-11-18T00:50:33.558Z,2.33
2022-11-18T00:55:35.589Z,3.17
2022-11-18T01:00:37.678Z,2.55
2022-11-18T01:05:40.206Z,2.55
2022-11-18T01:10:42.189Z,2.70
2022-11-18T01:15:48.549Z,2.45
2022-11-18T01:20:51.075Z,2.50
2022-11-18T01:25:53.352Z,2.63
2022-11-18T01:30:55.439Z,2.60
2022-11-18T01:35:57.579Z,3.38
2022-11-18T01:40:59.793Z,2.40
2022-11-18T01:46:01.922Z,1.83
2022-11-18T01:51:09.782Z,2.40
2022-11-18T01:56:17.037Z,2.58
2022-11-18T02:01:19.247Z,2.72
2022-11-18T02:06:21.506Z,2.28
2022-11-18T02:11:42.211Z,2.15
2022-11-18T02:17:12.718Z,2.25
2022-11-18T02:22:23.386Z,2.67
2022-11-18T02:27:27.997Z,2.50
2022-11-18T02:32:57.831Z,2.38
2022-11-18T02:38:08.714Z,2.20
2022-11-18T02:43:18.709Z,2.23
2022-11-18T02:48:24.860Z,2.33
2022-11-18T02:53:30.256Z,2.17
2022-11-18T02:58:32.322Z,2.50
2022-11-18T03:03:36.838Z,2.83
2022-11-18T03:08:46.125Z,2.70
2022-11-18T03:14:06.963Z,2.50
2022-11-18T03:19:38.866Z,2.43
2022-11-18T03:24:50.038Z,2.15
2022-11-18T03:30:03.976Z,2.50
2022-11-18T03:35:19.956Z,2.75
2022-11-18T03:40:28.526Z,2.10
2022-11-18T03:45:45.734Z,2.10
2022-11-18T03:50:55.696Z,2.63
2022-11-18T03:56:07.142Z,2.70
2022-11-18T04:01:18.112Z,3.72
2022-11-18T04:06:41.753Z,2.22
2022-11-18T04:12:03.468Z,2.13
2022-11-18T04:22:10.957Z,2.33
2022-11-18T04:27:13.241Z,2.40
2022-11-18T04:32:15.287Z,1.90
2022-11-18T04:37:17.311Z,2.28
2022-11-18T04:42:19.329Z,2.30
2022-11-18T04:47:21.394Z,2.10
2022-11-18T04:52:23.433Z,1.75
2022-11-18T04:57:25.522Z,2.35
2022-11-18T05:02:28.611Z,1.92
2022-11-18T05:07:30.730Z,2.30
2022-11-18T05:12:51.942Z,5.03
2022-11-18T05:17:53.926Z,2.33
2022-11-18T05:22:55.883Z,2.05
2022-11-18T05:27:57.830Z,2.13
2022-11-18T05:32:59.840Z,2.45
2022-11-18T05:38:01.843Z,2.40
2022-11-18T05:43:12.693Z,2.28
2022-11-18T05:48:14.728Z,2.27
2022-11-18T05:53:18.600Z,3.45
2022-11-18T05:58:20.601Z,2.45
2022-11-18T06:03:30.688Z,2.45
2022-11-18T06:08:39.221Z,2.15
2022-11-18T06:13:50.509Z,2.92
2022-11-18T06:18:52.994Z,2.70
2022-11-18T06:23:55.482Z,2.58
2022-11-18T06:28:57.948Z,2.78
2022-11-18T06:34:00.000Z,2.70
2022-11-18T06:39:06.818Z,2.50
2022-11-18T06:44:11.194Z,3.20
2022-11-18T06:49:13.227Z,2.35
2022-11-18T06:54:15.250Z,3.00
2022-11-18T06:59:23.915Z,3.13
2022-11-18T07:04:26.233Z,2.97
2022-11-18T07:09:28.264Z,2.70
2022-11-18T07:14:30.837Z,2.58
2022-11-18T07:19:35.825Z,2.70
2022-11-18T07:24:38.145Z,2.80
2022-11-18T07:29:40.141Z,3.10
2022-11-18T07:34:42.404Z,2.97
2022-11-18T07:39:44.496Z,4.00
2022-11-18T07:44:46.545Z,2.85
2022-11-18T07:49:48.540Z,2.67
2022-11-18T07:54:50.586Z,5.18
2022-11-18T07:59:52.593Z,3.78
2022-11-18T08:04:54.747Z,3.08
2022-11-18T08:09:56.782Z,3.33
2022-11-18T08:14:58.960Z,2.65
2022-11-18T08:20:00.985Z,3.00
2022-11-18T08:25:03.526Z,3.13
2022-11-18T08:30:06.196Z,3.03
2022-11-18T08:35:11.292Z,2.70
2022-11-18T08:40:13.919Z,3.25
2022-11-18T08:45:16.397Z,3.20
2022-11-18T08:50:18.442Z,3.55
2022-11-18T08:55:20.577Z,3.00
2022-11-18T09:00:22.741Z,2.53
2022-11-18T09:05:24.746Z,2.67
2022-11-18T09:10:27.182Z,3.42
2022-11-18T09:15:29.922Z,3.05
2022-11-18T09:20:32.001Z,3.67
2022-11-18T09:25:34.099Z,3.08
2022-11-18T09:30:36.244Z,2.50
2022-11-18T09:35:42.526Z,3.17
2022-11-18T09:41:02.919Z,3.53
2022-11-18T09:46:20.932Z,3.20
2022-11-18T09:51:28.659Z,4.95
2022-11-18T09:56:30.731Z,3.22
2022-11-18T10:01:33.129Z,3.67
2022-11-18T10:06:35.242Z,3.05
2022-11-18T10:12:00.167Z,3.15
2022-11-18T10:17:41.428Z,2.83
2022-11-18T10:22:49.178Z,3.07
2022-11-18T10:27:51.791Z,5.55
2022-11-18T10:33:25.226Z,3.28
2022-11-18T10:38:27.281Z,3.30
2022-11-18T10:43:52.074Z,5.03
2022-11-18T10:49:09.467Z,3.40
2022-11-18T10:54:17.841Z,3.22
2022-11-18T10:59:52.024Z,2.85
2022-11-18T11:04:54.210Z,3.50
2022-11-18T11:10:01.541Z,3.22
2022-11-18T11:15:16.264Z,3.10
2022-11-18T11:20:23.108Z,2.65
2022-11-18T11:31:47.988Z,3.30
2022-11-18T11:37:12.152Z,4.03
2022-11-18T11:42:17.234Z,3.75
2022-11-18T11:47:50.550Z,3.00
2022-11-18T11:53:40.370Z,3.17
2022-11-18T11:59:13.536Z,2.97
2022-11-18T12:04:39.441Z,2.90
2022-11-18T12:10:15.594Z,3.70
2022-11-18T12:15:36.976Z,4.20
2022-11-18T12:20:43.055Z,3.72
2022-11-18T12:25:48.147Z,3.67
2022-11-18T12:30:50.525Z,3.05
2022-11-18T12:35:52.652Z,3.15
2022-11-18T12:40:54.710Z,3.60
2022-11-18T12:45:58.570Z,3.13
2022-11-18T12:51:10.963Z,3.28
2022-11-18T12:56:34.664Z,3.15
2022-11-18T13:01:36.695Z,2.75
2022-11-18T13:06:39.971Z,3.05
2022-11-18T13:11:50.574Z,3.05
2022-11-18T13:17:11.460Z,2.97
2022-11-18T13:22:37.104Z,3.00
2022-11-18T13:27:48.569Z,3.00
2022-11-18T13:32:53.899Z,3.05
2022-11-18T13:37:58.815Z,2.83
2022-11-18T13:43:00.817Z,2.85
2022-11-18T13:48:10.310Z,2.78
2022-11-18T13:53:34.985Z,3.05
2022-11-18T13:59:15.566Z,2.95
2022-11-18T14:04:16.471Z,2.78
2022-11-18T14:09:44.339Z,3.10
2022-11-18T14:14:47.348Z,2.83
2022-11-18T14:19:55.173Z,3.17
2022-11-18T14:25:01.331Z,2.78
2022-11-18T14:30:32.757Z,3.00
2022-11-18T14:35:35.246Z,3.13
2022-11-18T14:40:37.357Z,3.10
2022-11-18T14:45:40.891Z,3.10
2022-11-18T14:50:42.904Z,3.03
2022-11-18T14:55:45.883Z,2.83
2022-11-18T15:00:49.434Z,3.10
2022-11-18T15:05:51.770Z,3.15
2022-11-18T15:10:53.785Z,3.20
2022-11-18T15:15:55.831Z,3.20
2022-11-18T15:20:57.836Z,2.85
2022-11-18T15:26:00.289Z,3.15
2022-11-18T15:31:02.274Z,3.55
2022-11-18T15:36:04.432Z,3.08
2022-11-18T15:41:07.249Z,3.28
2022-11-18T15:46:10.648Z,3.85
2022-11-18T15:51:12.956Z,3.80
2022-11-18T15:56:24.076Z,3.38
2022-11-18T16:01:31.259Z,3.50
2022-11-18T16:06:34.097Z,3.63
2022-11-18T16:11:55.182Z,2.95
2022-11-18T16:16:57.474Z,3.50
2022-11-18T16:21:59.578Z,3.45
2022-11-18T16:27:04.632Z,3.70
2022-11-18T16:32:14.542Z,3.17
2022-11-18T16:37:16.682Z,3.22
2022-11-18T16:42:18.782Z,3.58
2022-11-18T16:47:20.810Z,3.63
2022-11-18T16:52:23.127Z,3.33
2022-11-18T16:57:25.440Z,3.20
2022-11-18T17:02:27.561Z,3.60
2022-11-18T17:07:33.977Z,3.17
2022-11-18T17:12:39.028Z,4.43
2022-11-18T17:17:42.562Z,3.80
2022-11-18T17:22:45.576Z,3.22
2022-11-18T17:27:48.556Z,3.42
2022-11-18T17:32:51.638Z,3.53
2022-11-18T17:37:53.628Z,4.03
2022-11-18T17:42:55.679Z,3.63
2022-11-18T17:47:58.300Z,3.58
2022-11-18T17:53:00.267Z,3.53
2022-11-18T17:58:02.510Z,2.95
2022-11-18T18:03:05.595Z,3.47
2022-11-18T18:08:10.069Z,3.63
2022-11-18T18:13:30.848Z,3.15
2022-11-18T18:18:32.870Z,3.60
2022-11-18T18:23:36.450Z,3.75
2022-11-18T18:28:38.655Z,4.15
2022-11-18T18:33:40.928Z,3.40
2022-11-18T18:38:43.980Z,3.50
2022-11-18T18:43:47.145Z,3.45
2022-11-18T18:48:49.315Z,3.80
2022-11-18T18:53:51.655Z,3.72
2022-11-18T18:58:54.475Z,3.10
2022-11-18T19:04:02.188Z,5.10
2022-11-18T19:09:06.538Z,4.20
2022-11-18T19:14:11.099Z,3.47
2022-11-18T19:19:16.150Z,4.10
2022-11-18T19:24:35.167Z,3.95
2022-11-18T19:29:41.373Z,3.80
2022-11-18T19:34:43.420Z,4.10
2022-11-18T19:39:46.827Z,3.63
2022-11-18T19:44:48.818Z,4.00
2022-11-18T19:49:50.839Z,3.65
2022-11-18T19:54:52.993Z,4.20
2022-11-18T19:59:55.156Z,4.50
2022-11-18T20:05:15.663Z,3.92
2022-11-18T20:10:17.961Z,5.30
2022-11-18T20:15:20.006Z,4.15
2022-11-18T20:20:22.089Z,3.90
2022-11-18T20:25:25.543Z,4.03
2022-11-18T20:30:27.720Z,4.05
2022-11-18T20:35:29.958Z,4.47
2022-11-18T20:40:32.326Z,4.20
2022-11-18T20:45:34.432Z,3.78
2022-11-18T20:50:38.322Z,4.15
2022-11-18T20:55:40.572Z,4.38
2022-11-18T21:00:43.808Z,6.18
2022-11-18T21:05:46.010Z,4.25
2022-11-18T21:10:48.156Z,4.35
2022-11-18T21:15:50.310Z,4.65
2022-11-18T21:21:15.747Z,3.70
2022-11-18T21:26:17.856Z,3.78
2022-11-18T21:31:23.170Z,4.10
2022-11-18T21:36:26.886Z,4.03
2022-11-18T21:41:29.897Z,6.03
2022-11-18T21:46:32.001Z,3.92
2022-11-18T21:51:35.424Z,3.80
2022-11-18T21:56:37.474Z,3.85
2022-11-18T22:01:39.504Z,4.50
2022-11-18T22:06:41.570Z,4.35
2022-11-18T22:11:43.552Z,4.78
2022-11-18T22:16:45.596Z,5.65
2022-11-18T22:21:47.631Z,5.30
2022-11-18T22:26:49.633Z,5.00
2022-11-18T22:31:52.130Z,5.45
2022-11-18T22:36:54.144Z,4.85
2022-11-18T22:42:15.078Z,5.22
2022-11-18T22:47:17.093Z,5.07
2022-11-18T22:52:19.112Z,4.93
2022-11-18T22:57:21.086Z,4.38
2022-11-18T23:02:23.051Z,5.03
2022-11-18T23:07:25.126Z,4.85
2022-11-18T23:12:47.828Z,4.93
2022-11-18T23:17:49.963Z,10.30
2022-11-18T23:22:53.622Z,5.25
2022-11-18T23:27:55.681Z,5.07
2022-11-18T23:32:57.693Z,6.07
2022-11-18T23:37:59.676Z,5.30
2022-11-18T23:43:01.787Z,5.85
2022-11-18T23:48:03.886Z,4.00
2022-11-18T23:53:06.909Z,5.43
2022-11-18T23:58:08.931Z,4.43
